Penn Valley, CA (95946)

5:56 AM PST on February 24, 2017 (GMT -0800)
Lazy Valley | | Change Station
Active Advisory: Hydrologic Statement

Elev 1420 ft 39.20 °N, 121.17 °W | Updated 5 seconds ago

Clear
Clear
25.5 °F
Feels Like 26 °F
N
1.3
Wind Variable Wind from East
Gusts 2.7 mph

Today
High -- | Low -- °F
--% Chance of Precip.
Yesterday
High -- | Low -- °F
Precip. -- in
Pressure 30.13 in
Visibility 10.0 miles
Clouds Clear
Windchill 26 °F
Dew Point 25 °F
Humidity 98%
Rainfall 0.00 in
Snow Depth Not available.
6:44 AM 5:52 PM
Waning Crescent, 5% visible
METAR KGOO 241335Z AUTO 09004KT 10SM CLR M02/M07 A3013 RMK AO1
Pressure 30.13 in
Visibility 10.0 miles
Clouds Clear
Windchill 26 °F
Dew Point 25 °F
Humidity 98%
Rainfall 0.00 in
Snow Depth Not available.
6:44 AM 5:52 PM
Waning Crescent, 5% visible
METAR KGOO 241335Z AUTO 09004KT 10SM CLR M02/M07 A3013 RMK AO1

Get Your Daily Forecast Email!

Thanks for signing up!

Be on the lookout for a verification email in your inbox.

You'll start receiving the daily forecast at 8 AM.

×

10-Day Weather Forecast

Almanac

Astronomy

Feb. 24, 2017 Rise Set
Actual Time
Civil Twilight
Nautical Twilight
Astronomical Twilight
Moon
Length of Visible Light
Length of Day
Tomorrow will be .
, % of the Moon is Illuminated

Today's Extremes

State Highs State Lows

Community

WunderPhotos

Upload Photos

1,962,540 photos uploaded!

WunderBlog® & News

Nearby

Air Quality

  Air Quality AQ Index Pollutant
Not available.

Snow Depth

Station Depth Elevation

Earthquake Activity

City Distance Mag. Time & Date
Minimum magnitude displayed is 2.5.

Coastal Water Temperatures

Place Temperature

Stations

Nearby Weather Stations

Station Location Temp. Windchill Dew Point Humidity Wind Precip. Elev Updated Type
                   

Watches & Warnings

Hydrologic Statement
Issued: 2:03 PM PST Feb. 23, 2017 – National Weather Service

Forecast information for
Cosumnes river at Michigan Bar.
* At 1:30 PM Thursday the stage was 8.1 feet.
* Forecast to recede to near 7.5 ft tomorrow afternoon.
* Flood stage 12.0 ft
* monitor stage 7.0 ft
* impact... near 8.0 feet, low lying lands along the river begin to
flood.

&&

Lat... Lon 3848 12133 3859 12103 3842 12092 3836 12124